Fairhope, AL (36532)

6:45 AM CDT on July 24, 2016 (GMT -0500)
CR-48 at CR-33 | | Change Station

Elev 95 ft 30.52 °N, 87.82 °W | Updated 28 seconds ago

Scattered Clouds
Scattered Clouds
75.7 °F
Feels Like 74 °F
N
0.0
Wind Variable Wind from NNE
Gusts 0.0 mph

Today
High -- | Low -- °F
--% Chance of Precip.
Yesterday
High -- | Low -- °F
Precip. -- in
Pressure 29.99 in
Visibility 10.0 miles
Clouds Scattered Clouds 4800 ft
Heat Index 74 °F
Dew Point 75 °F
Humidity 97%
Rainfall 0.00 in
Snow Depth Not available.
6:05 AM 7:50 PM
Waning Gibbous, 77% visible
METAR KCQF 241135Z AUTO 00000KT 10SM SCT048 24/24 A2999 RMK AO2
Pressure 29.99 in
Visibility 10.0 miles
Clouds Scattered Clouds 4800 ft
Heat Index 74 °F
Dew Point 75 °F
Humidity 97%
Rainfall 0.00 in
Snow Depth Not available.
6:05 AM 7:50 PM
Waning Gibbous, 77% visible
METAR KCQF 241135Z AUTO 00000KT 10SM SCT048 24/24 A2999 RMK AO2

10-Day Weather Forecast

Almanac

Astronomy

Jul. 24, 2016 Rise Set
Actual Time
Civil Twilight
Nautical Twilight
Astronomical Twilight
Moon
Length of Visible Light
Length of Day
Tomorrow will be .
, % of the Moon is Illuminated

Today's Extremes

State Highs State Lows

Community

WunderPhotos

Upload Photos

1,927,049 photos uploaded!

WunderBlog® & News

Nearby

Air Quality

  Air Quality AQ Index Pollutant
Not available.

Snow Depth

Station Depth Elevation

Earthquake Activity

City Distance Mag. Time & Date
Minimum magnitude displayed is 2.5.

Coastal Water Temperatures

Place Temperature

Stations

Nearby Weather Stations

Station Location Temp. Windchill Dew Point Humidity Wind Precip. Elev Updated Type
                   

Watches & Warnings

There are currently no watches in effect.